sensor_id;sensor_type;location;lat;lon;timestamp;pressure;altitude;pressure_sealevel;temperature;humidity
77639;BME280;66802;52.574;14.398;2023-04-07T03:01:55;101984.38;;;1.05;69.73
77639;BME280;66802;52.574;14.398;2023-04-07T03:04:21;101978.97;;;1.06;69.79
77639;BME280;66802;52.574;14.398;2023-04-07T03:06:47;101983.50;;;1.04;70.28
77639;BME280;66802;52.574;14.398;2023-04-07T03:09:13;101998.56;;;1.04;70.47
77639;BME280;66802;52.574;14.398;2023-04-07T03:11:38;101995.06;;;1.03;70.31
77639;BME280;66802;52.574;14.398;2023-04-07T03:14:04;101984.53;;;1.00;70.81
77639;BME280;66802;52.574;14.398;2023-04-07T03:16:29;101979.16;;;1.02;70.57
77639;BME280;66802;52.574;14.398;2023-04-07T03:18:55;101977.31;;;1.04;71.26
77639;BME280;66802;52.574;14.398;2023-04-07T03:21:20;101988.00;;;1.02;71.00
77639;BME280;66802;52.574;14.398;2023-04-07T03:23:46;101974.88;;;0.98;71.07
77639;BME280;66802;52.574;14.398;2023-04-07T03:26:11;101986.16;;;1.04;71.14
77639;BME280;66802;52.574;14.398;2023-04-07T03:28:37;101987.06;;;1.03;70.89
77639;BME280;66802;52.574;14.398;2023-04-07T03:31:03;101986.16;;;1.04;71.20
77639;BME280;66802;52.574;14.398;2023-04-07T03:33:28;101972.84;;;1.04;71.25
77639;BME280;66802;52.574;14.398;2023-04-07T03:35:54;101976.38;;;1.05;71.31
77639;BME280;66802;52.574;14.398;2023-04-07T03:38:19;101977.97;;;1.09;71.23
77639;BME280;66802;52.574;14.398;2023-04-07T03:40:45;101971.88;;;1.07;70.73
77639;BME280;66802;52.574;14.398;2023-04-07T03:43:11;101975.19;;;1.12;70.55
77639;BME280;66802;52.574;14.398;2023-04-07T03:45:40;101970.84;;;1.09;70.74
77639;BME280;66802;52.574;14.398;2023-04-07T03:48:06;101972.66;;;1.09;71.29
77639;BME280;66802;52.574;14.398;2023-04-07T03:50:37;101964.94;;;1.03;71.10
77639;BME280;66802;52.574;14.398;2023-04-07T03:53:02;101968.41;;;1.05;71.07
77639;BME280;66802;52.574;14.398;2023-04-07T03:55:28;101962.16;;;1.06;71.30
77639;BME280;66802;52.574;14.398;2023-04-07T03:57:54;101963.03;;;1.06;70.92
77639;BME280;66802;52.574;14.398;2023-04-07T04:00:19;101970.09;;;1.07;71.36
77639;BME280;66802;52.574;14.398;2023-04-07T04:02:45;101975.31;;;1.09;71.19
77639;BME280;66802;52.574;14.398;2023-04-07T04:05:10;101976.13;;;1.11;71.10
77639;BME280;66802;52.574;14.398;2023-04-07T04:07:36;101973.28;;;1.16;71.33
77639;BME280;66802;52.574;14.398;2023-04-07T04:10:02;101975.19;;;1.12;71.51
77639;BME280;66802;52.574;14.398;2023-04-07T04:12:27;101983.16;;;1.12;70.71
77639;BME280;66802;52.574;14.398;2023-04-07T04:14:53;101971.59;;;1.13;70.81
77639;BME280;66802;52.574;14.398;2023-04-07T04:17:18;101980.38;;;1.15;71.25
77639;BME280;66802;52.574;14.398;2023-04-07T04:19:44;101981.25;;;1.16;71.10
77639;BME280;66802;52.574;14.398;2023-04-07T04:22:10;101990.91;;;1.18;71.16
77639;BME280;66802;52.574;14.398;2023-04-07T04:24:35;101982.94;;;1.18;71.85
77639;BME280;66802;52.574;14.398;2023-04-07T04:27:01;101982.06;;;1.18;71.42
77639;BME280;66802;52.574;14.398;2023-04-07T04:29:27;101982.94;;;1.18;70.97
77639;BME280;66802;52.574;14.398;2023-04-07T04:31:52;101986.38;;;1.20;71.54
77639;BME280;66802;52.574;14.398;2023-04-07T04:34:18;101978.47;;;1.19;71.10
77639;BME280;66802;52.574;14.398;2023-04-07T04:36:43;101979.31;;;1.19;70.87
77639;BME280;66802;52.574;14.398;2023-04-07T04:39:09;101981.00;;;1.22;71.43
77639;BME280;66802;52.574;14.398;2023-04-07T04:41:34;101986.25;;;1.23;71.22
77639;BME280;66802;52.574;14.398;2023-04-07T04:44:00;101984.50;;;1.22;71.35
77639;BME280;66802;52.574;14.398;2023-04-07T04:46:25;101979.13;;;1.24;71.18
77639;BME280;66802;52.574;14.398;2023-04-07T04:48:51;101977.22;;;1.27;71.06
77639;BME280;66802;52.574;14.398;2023-04-07T04:51:18;101972.78;;;1.28;71.31
77639;BME280;66802;52.574;14.398;2023-04-07T04:53:44;101975.28;;;1.31;71.49
77639;BME280;66802;52.574;14.398;2023-04-07T04:56:10;101975.16;;;1.34;71.70
77639;BME280;66802;52.574;14.398;2023-04-07T04:58:36;101975.09;;;1.35;71.46
77639;BME280;66802;52.574;14.398;2023-04-07T05:01:04;101975.84;;;1.39;71.54
77639;BME280;66802;52.574;14.398;2023-04-07T05:03:30;101979.28;;;1.41;71.55
77639;BME280;66802;52.574;14.398;2023-04-07T05:05:55;101982.69;;;1.44;71.81
77639;BME280;66802;52.574;14.398;2023-04-07T05:08:21;101981.75;;;1.45;71.51
77639;BME280;66802;52.574;14.398;2023-04-07T05:10:47;101976.25;;;1.50;71.74
77639;BME280;66802;52.574;14.398;2023-04-07T05:13:12;101982.34;;;1.52;72.41
77639;BME280;66802;52.574;14.398;2023-04-07T05:15:40;101980.53;;;1.53;72.49
77639;BME280;66802;52.574;14.398;2023-04-07T05:18:06;101982.22;;;1.55;72.26
77639;BME280;66802;52.574;14.398;2023-04-07T05:20:31;101982.03;;;1.60;72.31
77639;BME280;66802;52.574;14.398;2023-04-07T05:22:57;101985.50;;;1.62;72.20
77639;BME280;66802;52.574;14.398;2023-04-07T05:25:22;101980.94;;;1.64;71.77
77639;BME280;66802;52.574;14.398;2023-04-07T05:27:49;101977.22;;;1.68;72.52
77639;BME280;66802;52.574;14.398;2023-04-07T05:30:15;101985.28;;;1.66;72.64
77639;BME280;66802;52.574;14.398;2023-04-07T05:32:40;101978.16;;;1.67;72.82
77639;BME280;66802;52.574;14.398;2023-04-07T05:35:06;101982.56;;;1.68;73.21
77639;BME280;66802;52.574;14.398;2023-04-07T05:37:32;101984.22;;;1.70;73.27
77639;BME280;66802;52.574;14.398;2023-04-07T05:39:57;101986.53;;;1.78;73.45
77639;BME280;66802;52.574;14.398;2023-04-07T05:42:23;101989.94;;;1.81;73.35
77639;BME280;66802;52.574;14.398;2023-04-07T05:44:48;101989.72;;;1.86;73.50
77639;BME280;66802;52.574;14.398;2023-04-07T05:47:14;101978.00;;;1.90;73.21
77639;BME280;66802;52.574;14.398;2023-04-07T05:49:40;101974.28;;;1.94;74.05
77639;BME280;66802;52.574;14.398;2023-04-07T05:52:13;101981.13;;;2.00;74.29
77639;BME280;66802;52.574;14.398;2023-04-07T05:54:39;101984.53;;;2.03;73.47
77639;BME280;66802;52.574;14.398;2023-04-07T05:57:06;101980.63;;;2.10;73.76
77639;BME280;66802;52.574;14.398;2023-04-07T05:59:32;101989.28;;;2.15;73.68
77639;BME280;66802;52.574;14.398;2023-04-07T06:01:58;101984.66;;;2.19;73.65
77639;BME280;66802;52.574;14.398;2023-04-07T06:04:24;101988.13;;;2.21;74.16
77639;BME280;66802;52.574;14.398;2023-04-07T06:06:49;101981.81;;;2.24;74.52
77639;BME280;66802;52.574;14.398;2023-04-07T06:09:16;101983.38;;;2.28;74.69
77639;BME280;66802;52.574;14.398;2023-04-07T06:11:42;101986.84;;;2.30;74.50
77639;BME280;66802;52.574;14.398;2023-04-07T06:14:08;101988.56;;;2.31;74.85
77639;BME280;66802;52.574;14.398;2023-04-07T06:16:33;101986.78;;;2.31;75.07
77639;BME280;66802;52.574;14.398;2023-04-07T06:19:00;101983.13;;;2.34;75.20
77639;BME280;66802;52.574;14.398;2023-04-07T06:21:25;101989.88;;;2.41;75.57
77639;BME280;66802;52.574;14.398;2023-04-07T06:23:51;101979.00;;;2.45;75.30
77639;BME280;66802;52.574;14.398;2023-04-07T06:26:17;101982.47;;;2.47;75.27
77639;BME280;66802;52.574;14.398;2023-04-07T06:28:42;101987.63;;;2.50;75.73
77639;BME280;66802;52.574;14.398;2023-04-07T06:31:08;101989.31;;;2.53;75.40
77639;BME280;66802;52.574;14.398;2023-04-07T06:33:34;101991.03;;;2.54;75.23
77639;BME280;66802;52.574;14.398;2023-04-07T06:35:59;101992.56;;;2.60;75.73
77639;BME280;66802;52.574;14.398;2023-04-07T06:38:25;101992.19;;;2.67;75.23
77639;BME280;66802;52.574;14.398;2023-04-07T06:40:51;101998.47;;;2.66;75.96
77639;BME280;66802;52.574;14.398;2023-04-07T06:43:16;101987.78;;;2.66;76.13
77639;BME280;66802;52.574;14.398;2023-04-07T06:45:42;101981.28;;;2.72;75.98
77639;BME280;66802;52.574;14.398;2023-04-07T06:48:07;101980.34;;;2.73;75.83
77639;BME280;66802;52.574;14.398;2023-04-07T06:50:35;101993.47;;;2.77;75.11
77639;BME280;66802;52.574;14.398;2023-04-07T06:53:03;101995.13;;;2.80;75.17
77639;BME280;66802;52.574;14.398;2023-04-07T06:55:28;101985.09;;;2.85;75.10
77639;BME280;66802;52.574;14.398;2023-04-07T06:57:54;101987.75;;;2.85;75.58
77639;BME280;66802;52.574;14.398;2023-04-07T07:00:20;101991.78;;;2.93;75.96
77639;BME280;66802;52.574;14.398;2023-04-07T07:02:48;101996.84;;;3.00;76.23
77639;BME280;66802;52.574;14.398;2023-04-07T07:05:14;101993.16;;;3.02;75.21
77639;BME280;66802;52.574;14.398;2023-04-07T07:07:40;101995.31;;;3.13;74.90
77639;BME280;66802;52.574;14.398;2023-04-07T07:10:08;101994.66;;;3.25;75.16
77639;BME280;66802;52.574;14.398;2023-04-07T07:12:34;102000.31;;;3.36;74.54
77639;BME280;66802;52.574;14.398;2023-04-07T07:15:00;101998.38;;;3.40;74.19
77639;BME280;66802;52.574;14.398;2023-04-07T07:17:26;101995.31;;;3.47;73.96
77639;BME280;66802;52.574;14.398;2023-04-07T07:19:51;101998.28;;;3.58;73.72
77639;BME280;66802;52.574;14.398;2023-04-07T07:22:17;102004.34;;;3.62;72.72
77639;BME280;66802;52.574;14.398;2023-04-07T07:24:42;101999.81;;;3.64;72.73
77639;BME280;66802;52.574;14.398;2023-04-07T07:27:08;102006.63;;;3.70;72.80
77639;BME280;66802;52.574;14.398;2023-04-07T07:29:33;102008.13;;;3.75;71.76
77639;BME280;66802;52.574;14.398;2023-04-07T07:31:59;102007.00;;;3.79;71.09
77639;BME280;66802;52.574;14.398;2023-04-07T07:34:24;102007.50;;;3.87;70.75
77639;BME280;66802;52.574;14.398;2023-04-07T07:36:50;102002.75;;;3.92;69.28
77639;BME280;66802;52.574;14.398;2023-04-07T07:39:15;102015.16;;;3.93;69.74
77639;BME280;66802;52.574;14.398;2023-04-07T07:41:41;102012.25;;;3.98;69.94
77639;BME280;66802;52.574;14.398;2023-04-07T07:44:06;102017.28;;;4.04;69.93
77639;BME280;66802;52.574;14.398;2023-04-07T07:46:32;102013.50;;;4.08;68.67
77639;BME280;66802;52.574;14.398;2023-04-07T07:48:58;102020.66;;;4.08;69.14
77639;BME280;66802;52.574;14.398;2023-04-07T07:51:23;102023.06;;;4.12;69.06
77639;BME280;66802;52.574;14.398;2023-04-07T07:53:49;102030.22;;;4.12;69.49
77639;BME280;66802;52.574;14.398;2023-04-07T07:56:14;102028.31;;;4.14;68.78
77639;BME280;66802;52.574;14.398;2023-04-07T07:58:40;102030.22;;;4.12;68.48
77639;BME280;66802;52.574;14.398;2023-04-07T08:01:05;102027.66;;;4.10;68.32
77639;BME280;66802;52.574;14.398;2023-04-07T08:03:31;102024.19;;;4.08;68.93
77639;BME280;66802;52.574;14.398;2023-04-07T08:05:57;102026.59;;;4.13;67.90
77639;BME280;66802;52.574;14.398;2023-04-07T08:08:22;102027.31;;;4.16;67.47
77639;BME280;66802;52.574;14.398;2023-04-07T08:10:48;102031.06;;;4.12;67.92
77639;BME280;66802;52.574;14.398;2023-04-07T08:13:13;102026.53;;;4.14;68.17
77639;BME280;66802;52.574;14.398;2023-04-07T08:15:39;102036.59;;;4.09;68.71
77639;BME280;66802;52.574;14.398;2023-04-07T08:18:05;102030.47;;;4.07;68.66
77639;BME280;66802;52.574;14.398;2023-04-07T08:20:32;102034.38;;;4.17;68.44
77639;BME280;66802;52.574;14.398;2023-04-07T08:22:59;102031.72;;;4.17;68.35
77639;BME280;66802;52.574;14.398;2023-04-07T08:25:27;102039.56;;;4.20;67.79
77639;BME280;66802;52.574;14.398;2023-04-07T08:27:52;102036.63;;;4.25;68.12
77639;BME280;66802;52.574;14.398;2023-04-07T08:30:18;102032.41;;;4.21;68.27
77639;BME280;66802;52.574;14.398;2023-04-07T08:32:45;102035.16;;;4.19;68.27
77639;BME280;66802;52.574;14.398;2023-04-07T08:35:11;102040.09;;;4.27;68.14
77639;BME280;66802;52.574;14.398;2023-04-07T08:37:38;102039.00;;;4.31;68.29
77639;BME280;66802;52.574;14.398;2023-04-07T08:40:04;102039.69;;;4.34;67.98
77639;BME280;66802;52.574;14.398;2023-04-07T08:42:32;102048.81;;;4.30;68.09
77639;BME280;66802;52.574;14.398;2023-04-07T08:45:05;102041.47;;;4.34;67.99
77639;BME280;66802;52.574;14.398;2023-04-07T08:47:33;102041.19;;;4.40;67.66
77639;BME280;66802;52.574;14.398;2023-04-07T08:50:10;102044.44;;;4.45;67.17
77639;BME280;66802;52.574;14.398;2023-04-07T08:52:50;102046.16;;;4.46;67.10
77639;BME280;66802;52.574;14.398;2023-04-07T08:55:17;102046.03;;;4.49;67.61
77639;BME280;66802;52.574;14.398;2023-04-07T08:57:45;102044.06;;;4.53;66.91
77639;BME280;66802;52.574;14.398;2023-04-07T09:00:11;102035.84;;;4.56;66.85
77639;BME280;66802;52.574;14.398;2023-04-07T09:02:40;102047.09;;;4.62;67.38
77639;BME280;66802;52.574;14.398;2023-04-07T09:05:08;102049.31;;;4.70;66.97
77639;BME280;66802;52.574;14.398;2023-04-07T09:07:36;102052.94;;;4.69;66.99
77639;BME280;66802;52.574;14.398;2023-04-07T09:10:03;102053.72;;;4.71;67.72
77639;BME280;66802;52.574;14.398;2023-04-07T09:12:30;102049.94;;;4.75;68.20
77639;BME280;66802;52.574;14.398;2023-04-07T09:14:56;102050.53;;;4.80;67.85
77639;BME280;66802;52.574;14.398;2023-04-07T09:17:24;102054.59;;;4.71;69.22
77639;BME280;66802;52.574;14.398;2023-04-07T09:19:52;102058.06;;;4.73;69.71
77639;BME280;66802;52.574;14.398;2023-04-07T09:22:53;102066.75;;;4.77;69.50
77639;BME280;66802;52.574;14.398;2023-04-07T09:25:21;102063.22;;;4.76;70.20
77639;BME280;66802;52.574;14.398;2023-04-07T09:28:03;102068.75;;;4.73;71.56
77639;BME280;66802;52.574;14.398;2023-04-07T09:30:31;102066.00;;;4.75;71.42
77639;BME280;66802;52.574;14.398;2023-04-07T09:32:58;102062.00;;;4.66;71.20
77639;BME280;66802;52.574;14.398;2023-04-07T09:35:25;102060.03;;;4.70;71.33
77639;BME280;66802;52.574;14.398;2023-04-07T09:38:05;102064.34;;;4.72;71.83
77639;BME280;66802;52.574;14.398;2023-04-07T09:40:31;102056.16;;;4.75;71.40
77639;BME280;66802;52.574;14.398;2023-04-07T09:42:56;102051.91;;;4.71;71.33
77639;BME280;66802;52.574;14.398;2023-04-07T09:45:27;102047.69;;;4.67;71.56
77639;BME280;66802;52.574;14.398;2023-04-07T09:47:53;102053.81;;;4.69;71.97
77639;BME280;66802;52.574;14.398;2023-04-07T09:50:37;102050.53;;;4.64;72.24
77639;BME280;66802;52.574;14.398;2023-04-07T09:53:04;102045.78;;;4.69;71.78
77639;BME280;66802;52.574;14.398;2023-04-07T09:55:30;102048.22;;;4.74;71.42
77639;BME280;66802;52.574;14.398;2023-04-07T09:57:56;102039.84;;;4.80;71.29
77639;BME280;66802;52.574;14.398;2023-04-07T10:00:23;102036.91;;;4.69;70.75
77639;BME280;66802;52.574;14.398;2023-04-07T10:02:49;102040.19;;;4.74;70.51
77639;BME280;66802;52.574;14.398;2023-04-07T10:05:16;102041.94;;;4.75;71.83
77639;BME280;66802;52.574;14.398;2023-04-07T10:07:42;102038.91;;;4.81;71.24
77639;BME280;66802;52.574;14.398;2023-04-07T10:10:08;102044.88;;;4.86;71.63
77639;BME280;66802;52.574;14.398;2023-04-07T10:12:36;102040.72;;;4.81;71.41
77639;BME280;66802;52.574;14.398;2023-04-07T10:15:03;102040.97;;;4.92;71.57
77639;BME280;66802;52.574;14.398;2023-04-07T10:17:30;102047.34;;;4.89;71.67
77639;BME280;66802;52.574;14.398;2023-04-07T10:19:57;102046.31;;;4.92;71.32
77639;BME280;66802;52.574;14.398;2023-04-07T10:22:27;102046.31;;;4.92;71.72
77639;BME280;66802;52.574;14.398;2023-04-07T10:25:01;102045.28;;;4.94;71.55
77639;BME280;66802;52.574;14.398;2023-04-07T10:27:37;102038.72;;;5.00;71.02
77639;BME280;66802;52.574;14.398;2023-04-07T10:30:12;102036.75;;;5.03;71.60
77639;BME280;66802;52.574;14.398;2023-04-07T10:32:48;102039.84;;;5.11;70.95
77639;BME280;66802;52.574;14.398;2023-04-07T10:35:14;102039.84;;;5.11;70.46
77639;BME280;66802;52.574;14.398;2023-04-07T10:40:33;102031.56;;;5.16;71.63
77639;BME280;66802;52.574;14.398;2023-04-07T10:42:59;102045.19;;;5.11;71.10
77639;BME280;66802;52.574;14.398;2023-04-07T10:45:55;102038.72;;;5.16;71.93
77639;BME280;66802;52.574;14.398;2023-04-07T10:48:24;102041.97;;;5.21;71.53
77639;BME280;66802;52.574;14.398;2023-04-07T10:53:32;102036.53;;;5.22;72.86
77639;BME280;66802;52.574;14.398;2023-04-07T10:55:59;102039.91;;;5.26;72.66
77639;BME280;66802;52.574;14.398;2023-04-07T11:01:15;102032.91;;;5.23;73.73
77639;BME280;66802;52.574;14.398;2023-04-07T11:03:52;102028.84;;;5.32;73.82
77639;BME280;66802;52.574;14.398;2023-04-07T11:06:18;102029.63;;;5.34;73.05
77639;BME280;66802;52.574;14.398;2023-04-07T11:08:45;102039.91;;;5.26;73.75
77639;BME280;66802;52.574;14.398;2023-04-07T11:11:14;102026.88;;;5.20;74.05
77639;BME280;66802;52.574;14.398;2023-04-07T11:16:09;102028.09;;;5.14;74.91
77639;BME280;66802;52.574;14.398;2023-04-07T11:18:36;102025.19;;;5.19;74.67
77639;BME280;66802;52.574;14.398;2023-04-07T11:21:04;102032.06;;;5.23;74.73
77639;BME280;66802;52.574;14.398;2023-04-07T11:23:38;102036.53;;;5.22;75.17
77639;BME280;66802;52.574;14.398;2023-04-07T11:26:05;102040.16;;;5.21;75.45
77639;BME280;66802;52.574;14.398;2023-04-07T11:28:32;102042.34;;;5.14;76.60
77639;BME280;66802;52.574;14.398;2023-04-07T11:30:58;102037.78;;;5.17;76.25
77639;BME280;66802;52.574;14.398;2023-04-07T11:33:26;102035.69;;;5.22;75.93
77639;BME280;66802;52.574;14.398;2023-04-07T11:35:57;102036.06;;;5.16;76.76
77639;BME280;66802;52.574;14.398;2023-04-07T11:38:43;102038.66;;;5.17;76.89
77639;BME280;66802;52.574;14.398;2023-04-07T11:41:12;102043.13;;;5.17;77.33
77639;BME280;66802;52.574;14.398;2023-04-07T11:43:39;102033.19;;;5.19;77.01
77639;BME280;66802;52.574;14.398;2023-04-07T11:46:11;102029.13;;;5.11;76.67
77639;BME280;66802;52.574;14.398;2023-04-07T11:48:39;102038.88;;;5.12;77.18
77639;BME280;66802;52.574;14.398;2023-04-07T11:51:06;102027.50;;;5.09;77.44
77639;BME280;66802;52.574;14.398;2023-04-07T11:53:39;102028.19;;;5.12;78.07
77639;BME280;66802;52.574;14.398;2023-04-07T11:56:11;102023.53;;;5.16;77.76
77639;BME280;66802;52.574;14.398;2023-04-07T11:58:51;102019.13;;;5.15;78.46
77639;BME280;66802;52.574;14.398;2023-04-07T12:01:17;102021.03;;;5.13;78.96
77639;BME280;66802;52.574;14.398;2023-04-07T12:04:00;102007.38;;;5.18;78.95
77639;BME280;66802;52.574;14.398;2023-04-07T12:06:33;102005.13;;;5.26;78.35
77639;BME280;66802;52.574;14.398;2023-04-07T12:09:04;102009.34;;;5.30;78.26
77639;BME280;66802;52.574;14.398;2023-04-07T12:11:30;102012.63;;;5.35;78.63
77639;BME280;66802;52.574;14.398;2023-04-07T12:13:57;102009.03;;;5.50;78.02
77639;BME280;66802;52.574;14.398;2023-04-07T12:16:23;102010.78;;;5.51;77.43
77639;BME280;66802;52.574;14.398;2023-04-07T12:18:50;102007.88;;;5.54;77.10
77639;BME280;66802;52.574;14.398;2023-04-07T12:21:19;102006.69;;;5.60;77.93
77639;BME280;66802;52.574;14.398;2023-04-07T12:23:45;102001.91;;;5.65;76.81
77639;BME280;66802;52.574;14.398;2023-04-07T12:26:12;102011.75;;;5.64;76.79
77639;BME280;66802;52.574;14.398;2023-04-07T12:28:38;102008.97;;;5.66;77.07
77639;BME280;66802;52.574;14.398;2023-04-07T12:31:03;102009.59;;;5.71;76.45
77639;BME280;66802;52.574;14.398;2023-04-07T12:33:30;102010.44;;;5.71;76.17
77639;BME280;66802;52.574;14.398;2023-04-07T12:35:58;102005.00;;;5.73;76.68
77639;BME280;66802;52.574;14.398;2023-04-07T12:38:23;102008.63;;;5.72;77.26
77639;BME280;66802;52.574;14.398;2023-04-07T12:40:49;102004.88;;;5.74;76.83
77639;BME280;66802;52.574;14.398;2023-04-07T12:43:15;102009.13;;;5.78;76.46
77639;BME280;66802;52.574;14.398;2023-04-07T12:45:40;102004.53;;;5.80;76.73
77639;BME280;66802;52.574;14.398;2023-04-07T12:48:06;102015.81;;;5.85;76.95
77639;BME280;66802;52.574;14.398;2023-04-07T12:50:34;102020.44;;;5.83;76.72
77639;BME280;66802;52.574;14.398;2023-04-07T12:53:00;102008.72;;;5.84;76.56
77639;BME280;66802;52.574;14.398;2023-04-07T12:55:28;102017.94;;;5.80;76.49
77639;BME280;66802;52.574;14.398;2023-04-07T12:57:54;102021.19;;;5.85;76.33
77639;BME280;66802;52.574;14.398;2023-04-07T13:00:20;102010.75;;;5.81;76.25
77639;BME280;66802;52.574;14.398;2023-04-07T13:02:45;102014.22;;;5.83;76.99
77639;BME280;66802;52.574;14.398;2023-04-07T13:05:11;102015.94;;;5.84;77.13
77639;BME280;66802;52.574;14.398;2023-04-07T13:07:37;102015.50;;;5.92;76.36
77639;BME280;66802;52.574;14.398;2023-04-07T13:10:03;102014.94;;;5.85;76.64
77639;BME280;66802;52.574;14.398;2023-04-07T13:12:30;102008.94;;;5.81;77.07
77639;BME280;66802;52.574;14.398;2023-04-07T13:14:55;102007.03;;;5.83;77.57
77639;BME280;66802;52.574;14.398;2023-04-07T13:17:21;102014.38;;;5.80;77.58
77639;BME280;66802;52.574;14.398;2023-04-07T13:19:47;102010.94;;;5.78;77.14
77639;BME280;66802;52.574;14.398;2023-04-07T13:22:12;102006.69;;;5.74;77.49
77639;BME280;66802;52.574;14.398;2023-04-07T13:24:38;102006.13;;;5.69;77.74
77639;BME280;66802;52.574;14.398;2023-04-07T13:27:04;102005.66;;;5.62;77.90
77639;BME280;66802;52.574;14.398;2023-04-07T13:29:31;102007.25;;;5.65;78.70
77639;BME280;66802;52.574;14.398;2023-04-07T13:32:07;102002.59;;;5.68;78.57
77639;BME280;66802;52.574;14.398;2023-04-07T13:34:35;102003.75;;;5.78;78.51
77639;BME280;66802;52.574;14.398;2023-04-07T13:37:02;101996.09;;;5.72;77.66
77639;BME280;66802;52.574;14.398;2023-04-07T13:39:29;101998.56;;;5.75;77.74
77639;BME280;66802;52.574;14.398;2023-04-07T13:41:55;101994.53;;;5.68;78.50
77639;BME280;66802;52.574;14.398;2023-04-07T13:44:23;101995.50;;;5.67;78.32
77639;BME280;66802;52.574;14.398;2023-04-07T13:46:49;101996.66;;;5.77;77.86
77639;BME280;66802;52.574;14.398;2023-04-07T13:49:14;101989.50;;;5.78;77.98
77639;BME280;66802;52.574;14.398;2023-04-07T13:51:40;101990.28;;;5.80;77.59
77639;BME280;66802;52.574;14.398;2023-04-07T13:54:07;101988.94;;;5.73;77.76
77639;BME280;66802;52.574;14.398;2023-04-07T13:56:33;101993.31;;;5.74;78.50
77639;BME280;66802;52.574;14.398;2023-04-07T13:59:00;101997.22;;;5.68;78.14
77639;BME280;66802;52.574;14.398;2023-04-07T14:01:26;101993.50;;;5.71;78.44
77639;BME280;66802;52.574;14.398;2023-04-07T14:03:53;101988.16;;;5.71;79.30
77639;BME280;66802;52.574;14.398;2023-04-07T14:06:19;101990.63;;;5.74;78.75
77639;BME280;66802;52.574;14.398;2023-04-07T14:08:48;101982.31;;;5.78;78.88
77639;BME280;66802;52.574;14.398;2023-04-07T14:11:17;101988.00;;;5.88;78.27
77639;BME280;66802;52.574;14.398;2023-04-07T14:13:44;101982.13;;;5.81;77.87
77639;BME280;66802;52.574;14.398;2023-04-07T14:16:10;101980.03;;;5.86;78.09
77639;BME280;66802;52.574;14.398;2023-04-07T14:18:36;101973.06;;;5.84;78.35
77639;BME280;66802;52.574;14.398;2023-04-07T14:21:03;101976.41;;;5.87;78.33
77639;BME280;66802;52.574;14.398;2023-04-07T14:23:29;101979.69;;;5.93;78.75
77639;BME280;66802;52.574;14.398;2023-04-07T14:25:57;101982.56;;;5.90;78.18
77639;BME280;66802;52.574;14.398;2023-04-07T14:28:22;101987.53;;;5.96;78.43
77639;BME280;66802;52.574;14.398;2023-04-07T14:30:48;101985.84;;;5.95;77.41
77639;BME280;66802;52.574;14.398;2023-04-07T14:33:14;101980.34;;;5.96;78.71
77639;BME280;66802;52.574;14.398;2023-04-07T14:35:42;101975.28;;;5.92;77.98
77639;BME280;66802;52.574;14.398;2023-04-07T14:38:08;101983.16;;;5.95;79.06
77639;BME280;66802;52.574;14.398;2023-04-07T14:40:33;101971.44;;;5.96;78.79
77639;BME280;66802;52.574;14.398;2023-04-07T14:43:00;101971.44;;;5.96;78.82
77639;BME280;66802;52.574;14.398;2023-04-07T14:45:26;101969.53;;;5.98;78.77
77639;BME280;66802;52.574;14.398;2023-04-07T14:47:51;101976.72;;;5.97;79.25
77639;BME280;66802;52.574;14.398;2023-04-07T14:50:17;101979.31;;;5.99;78.92
77639;BME280;66802;52.574;14.398;2023-04-07T14:52:43;101974.81;;;5.99;79.14
77639;BME280;66802;52.574;14.398;2023-04-07T14:55:09;101973.78;;;6.02;79.49
77639;BME280;66802;52.574;14.398;2023-04-07T14:57:35;101976.28;;;6.05;79.28
77639;BME280;66802;52.574;14.398;2023-04-07T15:00:02;101971.88;;;6.04;78.80
77639;BME280;66802;52.574;14.398;2023-04-07T15:02:28;101969.94;;;6.06;79.32
77639;BME280;66802;52.574;14.398;2023-04-07T15:04:56;101979.81;;;6.05;79.86
77639;BME280;66802;52.574;14.398;2023-04-07T15:07:21;101975.28;;;6.06;80.10
77639;BME280;66802;52.574;14.398;2023-04-07T15:09:47;101974.25;;;6.08;80.08
77639;BME280;66802;52.574;14.398;2023-04-07T15:12:12;101974.34;;;6.07;79.99
77639;BME280;66802;52.574;14.398;2023-04-07T15:14:40;101976.44;;;6.02;79.94
77639;BME280;66802;52.574;14.398;2023-04-07T15:17:06;101978.75;;;6.08;80.03
77639;BME280;66802;52.574;14.398;2023-04-07T15:19:32;101978.19;;;6.03;80.27
77639;BME280;66802;52.574;14.398;2023-04-07T15:21:57;101984.97;;;6.08;80.10
77639;BME280;66802;52.574;14.398;2023-04-07T15:24:23;101976.75;;;6.11;80.05
77639;BME280;66802;52.574;14.398;2023-04-07T15:26:49;101975.97;;;6.09;80.29
77639;BME280;66802;52.574;14.398;2023-04-07T15:29:14;101971.47;;;6.10;80.27
77639;BME280;66802;52.574;14.398;2023-04-07T15:31:40;101974.34;;;6.07;80.37
77639;BME280;66802;52.574;14.398;2023-04-07T15:34:05;101968.03;;;6.08;79.96
77639;BME280;66802;52.574;14.398;2023-04-07T15:36:31;101969.09;;;6.05;79.99
77639;BME280;66802;52.574;14.398;2023-04-07T15:39:02;101968.22;;;6.05;80.09
77639;BME280;66802;52.574;14.398;2023-04-07T15:41:28;101970.13;;;6.03;80.33
77639;BME280;66802;52.574;14.398;2023-04-07T15:43:54;101962.09;;;6.03;80.84
77639;BME280;66802;52.574;14.398;2023-04-07T15:46:21;101964.78;;;6.03;80.56
77639;BME280;66802;52.574;14.398;2023-04-07T15:48:46;101949.75;;;6.00;80.79
77639;BME280;66802;52.574;14.398;2023-04-07T15:51:12;101955.19;;;5.99;80.94
77639;BME280;66802;52.574;14.398;2023-04-07T15:53:38;101956.16;;;5.98;81.31
77639;BME280;66802;52.574;14.398;2023-04-07T15:56:03;101954.41;;;5.97;82.20
77639;BME280;66802;52.574;14.398;2023-04-07T15:58:30;101953.56;;;5.96;82.01
77639;BME280;66802;52.574;14.398;2023-04-07T16:00:57;101956.53;;;5.92;81.40